Time;durP1;ratioP1;P1;durP2;ratioP2;P2;SDS_P1;SDS_P2;PMS_P1;PMS_P2;Temp;Humidity;BMP_temperature;BMP_pressure;BME280_temperature;BME280_humidity;BME280_pressure;Samples;Min_cycle;Max_cycle;Signal;HPM_P1;HPM_P2
2022/04/18 00:01:59;;;;;;;4.10;2.90;;;7.30;72.40;;;;;;5034520;28;20196;-50
2022/04/18 00:04:24;;;;;;;3.57;3.10;;;7.30;72.60;;;;;;5034015;28;20673;-51
2022/04/18 00:06:50;;;;;;;4.97;3.10;;;7.30;72.80;;;;;;5034502;28;20591;-50
2022/04/18 00:09:16;;;;;;;3.47;2.73;;;7.20;73.20;;;;;;5034347;28;20177;-50
2022/04/18 00:11:42;;;;;;;4.23;3.20;;;7.20;73.40;;;;;;5034345;28;20183;-49
2022/04/18 00:14:08;;;;;;;4.57;2.87;;;7.20;73.50;;;;;;5033907;28;20176;-52
2022/04/18 00:16:34;;;;;;;4.90;3.00;;;7.20;73.70;;;;;;5034289;28;20211;-50
2022/04/18 00:19:00;;;;;;;5.10;3.10;;;7.10;73.90;;;;;;5034216;28;20207;-50
2022/04/18 00:21:25;;;;;;;3.57;2.80;;;7.00;74.00;;;;;;5033434;28;20250;-51
2022/04/18 00:23:51;;;;;;;3.57;2.97;;;7.00;74.20;;;;;;5033794;28;20333;-49
2022/04/18 00:26:16;;;;;;;3.70;3.00;;;7.00;74.60;;;;;;5032360;28;20179;-50
2022/04/18 00:28:42;;;;;;;4.10;3.20;;;6.90;74.70;;;;;;5032588;28;20168;-49
2022/04/18 00:31:08;;;;;;;4.50;2.83;;;6.90;75.10;;;;;;5032004;28;20211;-53
2022/04/18 00:33:33;;;;;;;5.43;3.10;;;6.90;75.40;;;;;;5031781;28;20211;-53
2022/04/18 00:36:00;;;;;;;5.00;3.33;;;6.80;75.60;;;;;;5032735;28;20234;-50
2022/04/18 00:38:28;;;;;;;4.13;3.00;;;6.80;75.90;;;;;;5033995;28;20187;-52
2022/04/18 00:40:54;;;;;;;4.23;3.13;;;6.70;75.70;;;;;;5033718;28;20321;-50
2022/04/18 00:43:41;;;;;;;3.80;3.13;;;6.70;76.20;;;;;;5033302;28;20199;-53
2022/04/18 00:46:08;;;;;;;3.33;3.00;;;6.70;76.80;;;;;;5033542;28;20659;-50
2022/04/18 00:48:34;;;;;;;3.43;2.90;;;6.70;76.80;;;;;;5033672;28;20172;-50
2022/04/18 00:51:00;;;;;;;4.93;3.17;;;6.60;76.90;;;;;;5033636;28;20592;-51
2022/04/18 00:53:26;;;;;;;5.57;3.80;;;6.60;77.40;;;;;;5032960;28;20180;-50
2022/04/18 00:55:53;;;;;;;4.13;3.40;;;6.60;77.50;;;;;;5033593;28;20179;-51
2022/04/18 00:58:18;;;;;;;3.43;3.07;;;6.50;77.50;;;;;;5033454;28;20184;-50
2022/04/18 01:00:44;;;;;;;5.37;3.07;;;6.50;77.80;;;;;;5033103;28;20271;-51
2022/04/18 01:03:09;;;;;;;3.43;3.13;;;6.40;78.10;;;;;;5032520;28;20214;-50
2022/04/18 01:05:35;;;;;;;3.67;2.83;;;6.40;77.90;;;;;;5031665;28;20262;-50
2022/04/18 01:08:00;;;;;;;4.03;2.93;;;6.40;78.50;;;;;;5032861;28;20676;-50
2022/04/18 01:10:26;;;;;;;3.50;2.90;;;6.30;78.80;;;;;;5033386;28;20703;-49
2022/04/18 01:12:52;;;;;;;4.23;2.80;;;6.30;79.10;;;;;;5031482;28;20172;-50
2022/04/18 01:15:17;;;;;;;3.40;2.90;;;6.30;79.00;;;;;;5033196;28;20707;-53
2022/04/18 01:17:43;;;;;;;3.13;2.67;;;6.30;79.20;;;;;;5033148;28;20176;-52
2022/04/18 01:20:09;;;;;;;4.33;3.00;;;6.30;79.00;;;;;;5033045;28;20176;-50
2022/04/18 01:22:35;;;;;;;5.47;3.40;;;6.30;78.90;;;;;;5031234;28;20283;-51
2022/04/18 01:30:30;;;;;;;4.90;3.00;;;6.20;79.20;;;;;;5032776;28;20225;-52
2022/04/18 01:32:56;;;;;;;3.90;3.13;;;6.10;79.20;;;;;;5032469;28;20608;-53
2022/04/18 01:35:21;;;;;;;3.97;2.90;;;6.10;79.20;;;;;;5032716;28;20175;-51
2022/04/18 01:37:47;;;;;;;5.57;2.60;;;6.00;79.50;;;;;;5032799;28;20565;-52
2022/04/18 01:40:13;;;;;;;3.43;2.90;;;6.00;80.60;;;;;;5031561;28;20172;-56
2022/04/18 01:42:38;;;;;;;3.93;2.87;;;5.90;81.00;;;;;;5032176;28;20187;-50
2022/04/18 01:45:05;;;;;;;6.03;2.87;;;5.80;80.90;;;;;;5032527;28;20168;-50
2022/04/18 01:47:30;;;;;;;6.70;2.70;;;5.70;81.00;;;;;;5032660;28;20176;-52
2022/04/18 01:49:56;;;;;;;3.17;2.83;;;5.70;81.00;;;;;;5032602;28;20178;-51
2022/04/18 01:52:21;;;;;;;3.93;2.77;;;5.60;80.90;;;;;;5031947;28;20187;-50
2022/04/18 01:54:47;;;;;;;3.50;3.07;;;5.60;81.10;;;;;;5032409;28;20176;-51
2022/04/18 01:57:12;;;;;;;3.70;2.83;;;5.70;81.50;;;;;;5032349;28;20172;-52
2022/04/18 01:59:39;;;;;;;3.53;2.83;;;5.60;81.70;;;;;;5032374;28;20182;-51
2022/04/18 02:02:05;;;;;;;3.00;2.67;;;5.70;81.90;;;;;;5032098;28;20194;-50
2022/04/18 02:04:30;;;;;;;4.73;2.90;;;5.70;82.00;;;;;;5031967;28;20204;-50
2022/04/18 02:06:56;;;;;;;3.40;2.80;;;5.70;82.00;;;;;;5032094;28;20180;-52
2022/04/18 02:09:21;;;;;;;3.97;2.77;;;5.70;81.90;;;;;;5032238;28;20167;-52
2022/04/18 02:11:47;;;;;;;3.27;2.80;;;5.70;82.00;;;;;;5032223;28;20195;-54
2022/04/18 02:14:13;;;;;;;3.93;2.90;;;5.70;82.30;;;;;;5031830;28;20199;-50
2022/04/18 02:16:39;;;;;;;4.60;3.20;;;5.60;82.10;;;;;;5032105;28;20175;-50
2022/04/18 02:19:04;;;;;;;5.03;3.00;;;5.60;82.30;;;;;;5032102;28;20176;-53
2022/04/18 02:21:30;;;;;;;5.27;2.80;;;5.60;82.40;;;;;;5031840;28;20278;-51
2022/04/18 02:23:56;;;;;;;4.37;2.80;;;5.60;82.60;;;;;;5031424;28;20225;-55
2022/04/18 02:26:21;;;;;;;3.30;2.60;;;5.60;83.00;;;;;;5032222;28;20198;-50
2022/04/18 02:28:47;;;;;;;3.07;2.50;;;5.60;83.30;;;;;;5031791;28;20273;-52
2022/04/18 02:31:13;;;;;;;2.60;2.37;;;5.50;83.50;;;;;;5031776;28;20313;-53
2022/04/18 02:33:38;;;;;;;3.50;2.70;;;5.50;83.40;;;;;;5031471;28;20176;-55
2022/04/18 02:36:04;;;;;;;3.90;2.90;;;5.50;83.40;;;;;;5031942;28;20179;-50
2022/04/18 02:38:30;;;;;;;2.80;2.50;;;5.50;83.50;;;;;;5031806;28;20172;-51
2022/04/18 02:40:55;;;;;;;3.23;2.53;;;5.50;83.40;;;;;;5031678;28;20200;-54
2022/04/18 02:43:21;;;;;;;4.20;2.90;;;5.40;83.40;;;;;;5031459;28;20204;-53
2022/04/18 02:45:47;;;;;;;4.43;3.27;;;7.20;85.10;;;;;;5031705;28;20168;-50
2022/04/18 02:48:12;;;;;;;4.07;2.57;;;5.30;83.60;;;;;;5031744;28;20751;-50
2022/04/18 02:50:38;;;;;;;5.70;2.80;;;5.20;84.20;;;;;;5031786;28;20176;-52
2022/04/18 02:53:05;;;;;;;3.37;2.47;;;5.20;84.60;;;;;;5035473;28;20189;-54
2022/04/18 02:55:31;;;;;;;3.10;2.80;;;5.10;85.00;;;;;;5035981;28;20179;-51
2022/04/18 02:57:56;;;;;;;4.27;2.97;;;5.10;85.00;;;;;;5035778;28;20672;-50
2022/04/18 03:00:22;;;;;;;4.20;2.87;;;5.20;85.40;;;;;;5035667;28;20651;-50
2022/04/18 03:02:48;;;;;;;4.90;2.70;;;5.10;85.20;;;;;;5035151;28;20207;-53
2022/04/18 03:05:13;;;;;;;4.33;2.97;;;5.10;85.30;;;;;;5035623;28;20172;-52
2022/04/18 03:07:39;;;;;;;3.97;2.80;;;5.10;85.60;;;;;;5035433;28;20171;-54
2022/04/18 03:10:06;;;;;;;5.83;3.03;;;5.10;85.70;;;;;;5035591;28;20175;-50
2022/04/18 03:12:31;;;;;;;4.10;3.07;;;5.10;86.10;;;;;;5033776;28;20191;-56
2022/04/18 03:14:57;;;;;;;5.00;3.20;;;5.00;86.30;;;;;;5035503;28;20179;-53
2022/04/18 03:17:23;;;;;;;3.10;2.77;;;5.10;86.70;;;;;;5035402;28;20221;-51
2022/04/18 03:19:49;;;;;;;3.93;2.90;;;5.00;86.80;;;;;;5035358;28;20167;-51
2022/04/18 03:22:14;;;;;;;4.30;2.83;;;5.00;87.00;;;;;;5034783;28;20730;-49
2022/04/18 03:24:40;;;;;;;2.80;2.50;;;5.00;87.00;;;;;;5035137;28;20199;-50
2022/04/18 03:27:05;;;;;;;3.73;2.80;;;5.00;87.10;;;;;;5035264;28;20226;-50
2022/04/18 03:29:31;;;;;;;4.50;2.50;;;4.90;87.20;;;;;;5033804;28;20225;-51
2022/04/18 03:31:57;;;;;;;3.60;2.70;;;4.90;87.20;;;;;;5034967;28;20200;-52
2022/04/18 03:34:24;;;;;;;3.23;2.73;;;4.90;87.70;;;;;;5034707;28;20650;-52
2022/04/18 03:39:52;;;;;;;4.20;3.00;;;4.80;87.60;;;;;;5034556;28;20174;-49
2022/04/18 03:42:19;;;;;;;3.47;2.70;;;4.90;87.80;;;;;;5034685;28;20188;-56
2022/04/18 03:44:46;;;;;;;3.30;2.70;;;4.90;87.90;;;;;;5034731;28;20199;-54
2022/04/18 03:47:13;;;;;;;3.33;2.70;;;4.80;87.70;;;;;;5034869;28;20160;-50
2022/04/18 03:49:39;;;;;;;4.47;2.80;;;4.80;88.00;;;;;;5034596;28;20254;-54
2022/04/18 03:52:06;;;;;;;7.67;2.70;;;4.80;88.10;;;;;;5034711;28;20187;-54
2022/04/18 03:54:33;;;;;;;3.10;2.67;;;4.70;88.40;;;;;;5034303;28;20168;-49
2022/04/18 03:56:58;;;;;;;5.17;2.90;;;4.80;90.00;;;;;;5034822;28;20793;-55
2022/04/18 03:59:24;;;;;;;3.57;2.70;;;4.70;88.60;;;;;;5034525;28;20183;-51
2022/04/18 04:01:49;;;;;;;3.67;2.67;;;4.70;88.90;;;;;;5034284;28;20677;-50
2022/04/18 04:04:15;;;;;;;3.93;3.17;;;4.60;89.40;;;;;;5033156;28;20616;-55
2022/04/18 04:06:40;;;;;;;3.60;2.53;;;4.50;89.70;;;;;;5034423;28;20829;-53
2022/04/18 04:09:06;;;;;;;3.47;2.80;;;4.50;89.90;;;;;;5034761;28;20172;-51
2022/04/18 04:11:31;;;;;;;3.43;2.60;;;4.40;90.10;;;;;;5034272;28;20210;-54
2022/04/18 04:13:57;;;;;;;3.10;2.80;;;4.40;90.40;;;;;;5034159;28;20202;-49
2022/04/18 04:16:22;;;;;;;3.47;2.80;;;4.40;90.70;;;;;;5034200;28;20179;-54
2022/04/18 04:18:49;;;;;;;3.80;2.70;;;4.40;90.60;;;;;;5034276;28;20174;-49
2022/04/18 04:21:15;;;;;;;3.80;2.63;;;4.40;90.70;;;;;;5034003;28;20767;-54
2022/04/18 04:23:40;;;;;;;4.30;2.93;;;4.40;90.70;;;;;;5033808;28;20282;-50
2022/04/18 04:26:07;;;;;;;2.90;2.60;;;4.40;90.90;;;;;;5034072;28;20171;-50
2022/04/18 04:28:33;;;;;;;3.90;2.73;;;4.30;91.00;;;;;;5034151;28;20160;-51
2022/04/18 04:33:27;;;;;;;3.57;2.70;;;4.30;91.30;;;;;;5031325;28;20220;-53
2022/04/18 04:35:52;;;;;;;4.47;3.10;;;4.30;91.40;;;;;;5034105;28;20544;-55
2022/04/18 04:38:18;;;;;;;3.60;2.63;;;4.30;91.40;;;;;;5033995;28;20191;-51
2022/04/18 04:40:44;;;;;;;2.73;2.50;;;4.30;91.50;;;;;;5033918;28;20168;-52
2022/04/18 04:43:10;;;;;;;3.60;2.93;;;4.30;91.60;;;;;;5033440;28;20191;-50
2022/04/18 04:45:36;;;;;;;3.13;2.73;;;4.30;91.60;;;;;;5033773;28;20199;-49
2022/04/18 04:48:01;;;;;;;3.17;2.53;;;4.30;91.60;;;;;;5033507;28;20582;-49
2022/04/18 04:50:27;;;;;;;3.43;2.53;;;4.30;91.60;;;;;;5016018;28;20306;-49
2022/04/18 04:52:52;;;;;;;4.03;2.80;;;4.30;91.70;;;;;;5033164;28;20591;-50
2022/04/18 04:55:18;;;;;;;3.57;3.03;;;4.30;91.80;;;;;;5032882;28;20522;-51
2022/04/18 04:57:45;;;;;;;4.67;3.37;;;4.30;92.00;;;;;;5033507;28;20172;-49
2022/04/18 05:00:11;;;;;;;2.80;2.43;;;4.30;92.00;;;;;;5033303;28;20175;-51
2022/04/18 05:02:37;;;;;;;4.80;2.87;;;4.30;92.10;;;;;;5032918;28;20673;-49
2022/04/18 05:05:03;;;;;;;3.30;2.60;;;4.30;92.20;;;;;;5033045;28;20203;-50
2022/04/18 05:07:28;;;;;;;3.97;2.67;;;4.30;92.30;;;;;;5033387;28;20229;-49
2022/04/18 05:09:54;;;;;;;4.43;2.80;;;4.30;92.20;;;;;;5033284;28;20536;-49
2022/04/18 05:12:19;;;;;;;4.13;2.70;;;4.40;92.20;;;;;;5032750;28;20188;-52
2022/04/18 05:14:45;;;;;;;3.30;2.87;;;4.60;92.10;;;;;;5032912;28;20259;-51
2022/04/18 05:17:10;;;;;;;2.67;2.47;;;4.60;92.10;;;;;;5033099;28;20178;-54
2022/04/18 05:19:36;;;;;;;3.20;2.90;;;4.70;92.00;;;;;;5032968;28;20172;-50
2022/04/18 05:22:02;;;;;;;4.00;2.90;;;4.80;92.00;;;;;;5032984;28;20661;-52
2022/04/18 05:24:27;;;;;;;3.33;2.90;;;4.80;92.00;;;;;;5032684;28;20200;-50
2022/04/18 05:26:53;;;;;;;2.83;2.47;;;4.90;92.00;;;;;;5032909;28;20199;-51
2022/04/18 05:29:18;;;;;;;2.37;2.17;;;5.10;91.70;;;;;;5032801;28;20168;-52
2022/04/18 05:31:44;;;;;;;4.27;2.60;;;5.20;91.60;;;;;;5031799;28;20254;-50
2022/04/18 05:34:09;;;;;;;3.50;2.80;;;7.60;92.60;;;;;;5032597;28;20168;-50
2022/04/18 05:36:35;;;;;;;3.30;2.60;;;5.30;91.60;;;;;;5032726;28;20306;-50
2022/04/18 05:39:00;;;;;;;3.70;2.57;;;5.40;91.50;;;;;;5032702;28;20629;-48
2022/04/18 05:41:26;;;;;;;3.67;2.70;;;5.40;91.50;;;;;;5032258;28;20218;-50
2022/04/18 05:43:51;;;;;;;4.40;2.97;;;5.50;91.40;;;;;;5032052;28;20203;-53
2022/04/18 05:46:17;;;;;;;4.20;2.70;;;5.50;91.40;;;;;;5032632;28;20168;-51
2022/04/18 05:48:42;;;;;;;4.60;2.70;;;5.60;91.60;;;;;;5032553;28;20171;-50
2022/04/18 05:51:08;;;;;;;3.57;2.57;;;5.80;91.40;;;;;;5032457;28;20569;-51
2022/04/18 05:53:34;;;;;;;3.50;2.80;;;5.90;91.30;;;;;;5032079;28;20187;-50
2022/04/18 05:56:00;;;;;;;3.03;2.50;;;5.90;91.80;;;;;;5032412;28;20170;-50
2022/04/18 05:58:26;;;;;;;3.60;2.50;;;6.00;91.90;;;;;;5032227;28;20172;-50
2022/04/18 06:00:52;;;;;;;4.70;2.40;;;6.20;91.90;;;;;;5032309;28;20241;-50
2022/04/18 06:03:18;;;;;;;3.33;2.60;;;6.10;92.10;;;;;;5031681;28;20191;-50
2022/04/18 06:05:43;;;;;;;2.90;2.60;;;6.10;91.80;;;;;;5032321;28;20175;-51
2022/04/18 06:08:09;;;;;;;4.50;2.90;;;6.20;91.70;;;;;;5032310;28;20176;-53
2022/04/18 06:10:40;;;;;;;4.53;2.70;;;6.30;91.50;;;;;;5032221;28;20176;-51
2022/04/18 06:13:08;;;;;;;2.77;2.40;;;6.30;91.30;;;;;;5031651;28;20187;-50
2022/04/18 06:15:34;;;;;;;2.50;2.20;;;6.40;91.30;;;;;;5031918;28;20585;-52
2022/04/18 06:18:00;;;;;;;3.20;2.53;;;6.50;91.40;;;;;;5032004;28;20168;-51
2022/04/18 06:20:25;;;;;;;3.00;2.37;;;6.60;91.20;;;;;;5031912;28;20222;-53
2022/04/18 06:22:51;;;;;;;2.37;2.17;;;6.70;90.80;;;;;;5031614;28;20211;-50
2022/04/18 06:25:16;;;;;;;3.30;2.50;;;6.80;90.70;;;;;;5031740;28;20580;-50
2022/04/18 06:27:42;;;;;;;3.27;2.10;;;6.90;90.80;;;;;;5030401;28;20172;-53
2022/04/18 06:30:08;;;;;;;4.27;2.40;;;7.00;90.90;;;;;;5031485;28;20229;-52
2022/04/18 06:32:37;;;;;;;2.63;2.40;;;7.20;90.70;;;;;;5029972;28;20207;-53
2022/04/18 06:35:04;;;;;;;2.20;2.00;;;7.20;90.60;;;;;;5031217;28;20172;-53
2022/04/18 06:37:30;;;;;;;2.73;2.27;;;7.30;90.20;;;;;;5031633;28;20168;-49
2022/04/18 06:39:56;;;;;;;2.63;2.23;;;7.30;89.20;;;;;;5031768;28;20542;-52
2022/04/18 06:42:21;;;;;;;2.60;2.20;;;7.40;89.10;;;;;;5030947;28;20199;-53
2022/04/18 06:44:47;;;;;;;2.63;2.37;;;7.50;89.90;;;;;;5031640;28;20275;-55
2022/04/18 06:47:12;;;;;;;2.80;2.27;;;7.60;89.40;;;;;;5030966;28;20179;-54
2022/04/18 06:49:38;;;;;;;3.13;2.27;;;7.80;89.50;;;;;;5013843;28;20722;-51
2022/04/18 06:52:04;;;;;;;2.63;2.30;;;7.90;89.20;;;;;;5031373;28;20184;-53
2022/04/18 06:54:29;;;;;;;3.43;2.30;;;8.00;89.90;;;;;;5031335;28;20199;-54
2022/04/18 06:57:01;;;;;;;3.63;3.33;;;8.20;89.20;;;;;;5031360;28;20657;-52
2022/04/18 06:59:28;;;;;;;4.50;2.70;;;8.30;88.50;;;;;;5031617;28;20171;-53
2022/04/18 07:01:54;;;;;;;4.40;2.70;;;8.50;87.70;;;;;;5031557;28;20184;-54
2022/04/18 07:04:20;;;;;;;4.20;3.80;;;8.70;88.30;;;;;;5030863;28;20718;-51
2022/04/18 07:06:45;;;;;;;3.00;2.70;;;8.80;88.70;;;;;;5031455;28;20168;-53
2022/04/18 07:09:11;;;;;;;4.77;4.27;;;9.00;89.30;;;;;;5030255;28;20221;-55
2022/04/18 07:11:37;;;;;;;5.23;4.30;;;9.20;87.40;;;;;;5031291;28;20188;-52
2022/04/18 07:14:02;;;;;;;6.10;4.43;;;9.50;86.50;;;;;;5031224;28;20223;-56
2022/04/18 07:16:30;;;;;;;6.93;4.20;;;9.60;85.80;;;;;;5031669;28;20226;-56
2022/04/18 07:18:58;;;;;;;3.13;2.57;;;9.80;84.40;;;;;;5031788;28;20255;-57
2022/04/18 07:21:25;;;;;;;3.87;3.10;;;9.90;84.00;;;;;;5031610;28;20254;-53
2022/04/18 07:23:50;;;;;;;3.23;2.87;;;10.00;82.60;;;;;;5030860;28;20199;-51
2022/04/18 07:26:16;;;;;;;4.57;4.13;;;10.00;82.20;;;;;;5030651;28;20174;-53
2022/04/18 07:28:41;;;;;;;4.57;3.60;;;10.10;81.50;;;;;;5031359;28;20298;-53
2022/04/18 07:31:07;;;;;;;3.70;2.90;;;10.10;82.90;;;;;;5031065;28;20184;-52
2022/04/18 07:33:35;;;;;;;3.67;2.80;;;10.10;81.80;;;;;;5031012;28;20180;-51
2022/04/18 07:36:02;;;;;;;3.70;3.20;;;10.10;82.20;;;;;;5031100;28;20180;-52
2022/04/18 07:41:13;;;;;;;3.17;2.67;;;10.30;82.60;;;;;;5035002;28;20281;-51
2022/04/18 07:43:39;;;;;;;3.23;2.53;;;10.80;81.60;;;;;;5034573;28;20767;-52
2022/04/18 07:46:05;;;;;;;2.93;2.67;;;10.60;81.00;;;;;;5034703;28;20204;-54
2022/04/18 07:48:31;;;;;;;3.37;2.40;;;10.70;79.50;;;;;;5017213;28;20696;-51
2022/04/18 07:53:42;;;;;;;2.70;2.23;;;10.90;79.60;;;;;;5034800;28;20210;-53
2022/04/18 07:56:08;;;;;;;4.67;2.83;;;11.10;78.60;;;;;;5034646;28;20176;-53
2022/04/18 07:58:33;;;;;;;4.00;2.57;;;11.10;78.40;;;;;;5034740;28;20195;-51
2022/04/18 08:00:59;;;;;;;9.07;5.70;;;11.20;78.40;;;;;;5034638;28;20183;-55
2022/04/18 08:03:24;;;;;;;10.30;6.40;;;11.30;78.50;;;;;;5034031;28;20283;-54
2022/04/18 08:05:50;;;;;;;4.40;3.27;;;11.40;78.70;;;;;;5034536;28;20187;-52
2022/04/18 08:08:15;;;;;;;3.53;2.67;;;11.50;78.30;;;;;;5034483;28;20179;-52
2022/04/18 08:10:41;;;;;;;3.13;2.40;;;11.70;79.10;;;;;;5034459;28;20231;-51
2022/04/18 08:13:06;;;;;;;4.73;2.83;;;11.80;79.20;;;;;;5033560;28;20198;-52
2022/04/18 08:15:33;;;;;;;4.50;2.57;;;12.00;78.50;;;;;;5033859;28;20176;-54
2022/04/18 08:17:58;;;;;;;3.13;2.43;;;12.20;77.60;;;;;;5034225;28;20218;-52
2022/04/18 08:20:24;;;;;;;3.33;2.23;;;12.30;76.10;;;;;;5034314;28;20652;-51
2022/04/18 08:22:50;;;;;;;2.93;2.17;;;12.50;75.00;;;;;;5033752;28;20219;-55
2022/04/18 08:25:15;;;;;;;2.37;2.10;;;12.50;78.20;;;;;;5034065;28;20176;-53
2022/04/18 08:27:41;;;;;;;3.10;2.20;;;12.60;77.00;;;;;;5034114;28;20179;-53
2022/04/18 08:30:07;;;;;;;2.87;2.40;;;12.60;76.30;;;;;;5033260;28;20199;-56
2022/04/18 08:32:37;;;;;;;3.03;2.20;;;12.70;76.10;;;;;;5033421;28;20212;-54
2022/04/18 08:35:03;;;;;;;2.13;1.97;;;12.80;76.20;;;;;;5033816;28;20182;-51
2022/04/18 08:37:29;;;;;;;2.70;2.07;;;12.90;77.10;;;;;;5033994;28;20570;-53
2022/04/18 08:39:54;;;;;;;2.30;2.10;;;13.00;77.00;;;;;;5033712;28;20223;-53
2022/04/18 08:42:22;;;;;;;2.10;1.90;;;13.20;74.30;;;;;;5033252;28;20197;-55
2022/04/18 08:44:50;;;;;;;9.87;7.07;;;13.20;74.70;;;;;;5033632;28;20576;-55
2022/04/18 08:52:47;;;;;;;2.67;2.30;;;13.40;71.70;;;;;;5033534;28;20290;-55
2022/04/18 08:55:12;;;;;;;2.10;1.90;;;13.40;71.10;;;;;;5033641;28;20262;-56
2022/04/18 08:57:39;;;;;;;2.73;2.03;;;13.30;70.00;;;;;;5032701;28;20179;-53
2022/04/18 09:00:06;;;;;;;2.30;2.10;;;13.40;72.30;;;;;;5033548;28;20527;-53
2022/04/18 09:02:32;;;;;;;2.80;1.97;;;13.30;71.40;;;;;;5015196;28;20200;-54
2022/04/18 09:04:57;;;;;;;4.40;2.20;;;13.30;73.20;;;;;;5033438;28;20560;-56
2022/04/18 09:07:23;;;;;;;2.53;2.10;;;13.30;69.90;;;;;;5033279;28;20170;-52
2022/04/18 09:09:54;;;;;;;2.83;2.33;;;13.40;68.50;;;;;;5033404;28;20194;-54
2022/04/18 09:12:27;;;;;;;2.80;2.10;;;13.60;67.10;;;;;;5032567;28;20199;-54
2022/04/18 09:14:53;;;;;;;2.67;1.90;;;13.60;67.80;;;;;;5033350;28;20172;-55
2022/04/18 09:17:32;;;;;;;2.93;2.40;;;13.60;70.80;;;;;;5032996;28;20268;-53
2022/04/18 09:20:09;;;;;;;3.10;2.30;;;13.60;69.50;;;;;;5032579;28;20181;-53
2022/04/18 09:22:47;;;;;;;2.30;2.10;;;13.60;73.10;;;;;;5032558;28;20575;-56
2022/04/18 09:25:17;;;;;;;3.43;2.30;;;13.40;69.40;;;;;;5033051;28;20243;-54
2022/04/18 09:27:55;;;;;;;2.53;2.23;;;13.60;69.00;;;;;;5032947;28;20631;-52
2022/04/18 09:30:22;;;;;;;2.80;2.37;;;13.70;70.30;;;;;;5032947;28;20189;-55
2022/04/18 09:33:02;;;;;;;2.40;2.00;;;13.80;71.50;;;;;;5032344;28;20739;-52
2022/04/18 09:35:28;;;;;;;2.90;2.40;;;13.60;70.80;;;;;;5032726;28;20234;-53
2022/04/18 09:38:03;;;;;;;2.40;2.10;;;13.70;69.70;;;;;;5032983;28;20181;-52
2022/04/18 09:40:31;;;;;;;2.30;2.10;;;13.90;69.30;;;;;;5032649;28;20174;-53
2022/04/18 09:42:57;;;;;;;3.37;2.10;;;14.30;69.70;;;;;;5032055;28;20280;-56
2022/04/18 09:45:23;;;;;;;2.77;1.90;;;14.40;70.20;;;;;;5032277;28;20172;-55
2022/04/18 09:48:02;;;;;;;2.57;1.90;;;14.60;68.40;;;;;;5032526;28;20185;-58
2022/04/18 09:53:21;;;;;;;2.80;2.17;;;14.80;67.10;;;;;;5032423;28;20210;-55
2022/04/18 09:55:49;;;;;;;2.40;2.10;;;14.60;65.80;;;;;;5032247;28;20176;-51
2022/04/18 09:58:14;;;;;;;3.07;2.60;;;14.20;67.10;;;;;;5032401;28;20535;-54
2022/04/18 10:00:41;;;;;;;2.77;2.13;;;13.70;66.00;;;;;;5031360;28;20174;-52
2022/04/18 10:03:08;;;;;;;2.20;2.00;;;13.20;70.30;;;;;;5031831;28;20203;-51
2022/04/18 10:05:34;;;;;;;3.07;2.20;;;13.20;68.90;;;;;;5032143;28;20176;-51
2022/04/18 10:08:03;;;;;;;2.70;2.00;;;13.40;70.30;;;;;;5032348;28;20173;-56
2022/04/18 10:10:32;;;;;;;2.20;1.70;;;13.60;69.70;;;;;;5015246;28;20184;-56
2022/04/18 10:12:57;;;;;;;2.40;2.20;;;13.70;69.00;;;;;;5032080;28;20280;-56
2022/04/18 10:15:24;;;;;;;1.83;1.60;;;13.90;68.30;;;;;;5032366;28;20257;-52
2022/04/18 10:17:50;;;;;;;3.10;2.37;;;14.00;69.20;;;;;;5031935;28;20170;-52
2022/04/18 10:20:37;;;;;;;2.30;2.00;;;14.10;69.00;;;;;;5032116;28;20257;-52
2022/04/18 10:23:27;;;;;;;2.10;1.90;;;14.30;65.70;;;;;;5031271;28;20192;-52
2022/04/18 10:26:27;;;;;;;2.50;1.90;;;14.40;66.00;;;;;;5032126;28;20179;-52
2022/04/18 10:28:55;;;;;;;2.30;2.10;;;14.50;66.00;;;;;;5031885;28;20163;-54
2022/04/18 10:31:29;;;;;;;3.13;2.10;;;14.80;68.00;;;;;;5049260;22;20202;-48
2022/04/18 10:33:59;;;;;;;2.17;1.97;;;14.90;65.10;;;;;;4990422;28;20196;-56
2022/04/18 10:36:32;;;;;;;2.40;2.00;;;15.10;64.60;;;;;;5012200;28;20172;-56
2022/04/18 10:39:02;;;;;;;2.27;2.00;;;15.20;66.80;;;;;;5012027;28;20169;-55
2022/04/18 10:41:36;;;;;;;2.30;2.10;;;15.20;68.10;;;;;;5011934;28;20188;-51
2022/04/18 10:44:05;;;;;;;2.20;1.90;;;15.20;68.80;;;;;;5011267;28;20330;-51
2022/04/18 10:46:32;;;;;;;2.07;1.80;;;15.20;68.10;;;;;;5012085;28;20192;-51
2022/04/18 10:49:03;;;;;;;1.90;1.80;;;15.20;68.30;;;;;;5011960;28;20168;-56
2022/04/18 10:51:38;;;;;;;2.07;1.97;;;15.20;69.20;;;;;;5011960;28;20164;-51
2022/04/18 10:54:21;;;;;;;2.10;1.80;;;15.40;68.60;;;;;;5011411;28;20183;-55
2022/04/18 10:56:59;;;;;;;3.13;2.30;;;15.60;65.30;;;;;;5012018;28;20184;-52
2022/04/18 10:59:27;;;;;;;4.43;2.17;;;15.60;60.90;;;;;;5012014;28;20195;-51
2022/04/18 11:01:55;;;;;;;2.20;1.83;;;15.40;64.00;;;;;;5011722;28;20219;-53
2022/04/18 11:04:31;;;;;;;2.20;1.87;;;15.10;65.50;;;;;;5011193;28;20200;-52
2022/04/18 11:06:59;;;;;;;2.67;2.03;;;14.90;66.20;;;;;;4994173;28;20172;-54
2022/04/18 11:09:26;;;;;;;2.00;1.80;;;14.80;67.10;;;;;;5011865;28;20252;-55
2022/04/18 11:12:05;;;;;;;2.00;1.77;;;15.00;66.30;;;;;;5012237;28;20696;-54
2022/04/18 11:14:46;;;;;;;2.37;1.93;;;15.10;64.80;;;;;;5015423;28;20172;-55
2022/04/18 11:17:13;;;;;;;2.10;1.70;;;15.20;65.00;;;;;;5015297;28;20168;-53
2022/04/18 11:19:40;;;;;;;2.30;2.10;;;15.50;65.60;;;;;;4998027;28;20542;-56
2022/04/18 11:22:06;;;;;;;2.83;1.77;;;15.90;69.60;;;;;;5015338;28;20206;-56
2022/04/18 11:24:40;;;;;;;3.07;2.10;;;16.50;67.50;;;;;;5015140;28;20193;-52
2022/04/18 11:27:14;;;;;;;2.10;2.00;;;17.30;63.80;;;;;;5015218;28;20165;-55
2022/04/18 11:29:44;;;;;;;2.33;1.83;;;18.00;64.90;;;;;;5015139;28;20211;-52
2022/04/18 11:32:15;;;;;;;2.07;1.80;;;18.00;63.50;;;;;;5014857;28;20204;-54
2022/04/18 11:34:44;;;;;;;2.20;1.83;;;18.00;61.20;;;;;;5015134;28;20597;-53
2022/04/18 11:37:12;;;;;;;2.90;2.20;;;17.90;61.20;;;;;;5015138;28;20176;-55
2022/04/18 11:39:46;;;;;;;1.90;1.80;;;17.40;58.20;;;;;;5015204;28;20195;-54
2022/04/18 11:42:17;;;;;;;2.67;2.10;;;17.50;61.80;;;;;;5014712;28;20191;-54
2022/04/18 11:44:44;;;;;;;2.47;2.20;;;17.80;64.50;;;;;;5014962;28;20200;-57
2022/04/18 11:47:14;;;;;;;2.93;2.03;;;18.10;64.00;;;;;;4997263;28;20176;-57
2022/04/18 11:49:41;;;;;;;2.07;1.87;;;18.40;61.10;;;;;;5014946;28;20212;-57
2022/04/18 11:52:17;;;;;;;1.93;1.73;;;18.60;64.20;;;;;;5014859;28;20189;-52
2022/04/18 11:54:55;;;;;;;2.97;2.10;;;18.80;63.00;;;;;;5014614;28;20172;-56
2022/04/18 11:57:21;;;;;;;2.07;1.80;;;19.20;60.30;;;;;;5014880;28;20251;-56
2022/04/18 11:59:47;;;;;;;2.13;1.57;;;19.20;60.20;;;;;;5014669;28;20843;-56
2022/04/18 12:07:49;;;;;;;1.85;1.48;;;20.50;57.70;;;;;;5014547;28;20178;-54
2022/04/18 12:10:26;;;;;;;2.28;1.63;;;21.50;57.20;;;;;;5014485;28;20180;-55
2022/04/18 12:12:53;;;;;;;1.95;1.70;;;22.30;55.50;;;;;;5014234;28;20192;-58
2022/04/18 12:15:22;;;;;;;1.48;1.25;;;23.00;55.10;;;;;;5014311;28;20172;-57
2022/04/18 12:17:48;;;;;;;2.00;1.50;;;23.50;53.50;;;;;;5014299;28;20215;-55
2022/04/18 12:20:23;;;;;;;1.85;1.63;;;24.20;51.40;;;;;;5014304;28;20176;-51
2022/04/18 12:22:53;;;;;;;1.63;1.52;;;24.20;53.80;;;;;;5013864;28;20197;-51
2022/04/18 12:25:23;;;;;;;1.63;1.40;;;24.20;47.80;;;;;;5013326;28;20200;-51
2022/04/18 12:27:49;;;;;;;1.90;1.10;;;23.30;51.20;;;;;;5012486;28;20362;-53
2022/04/18 12:30:15;;;;;;;1.80;1.63;;;23.20;51.40;;;;;;5013114;28;20223;-53
2022/04/18 12:32:41;;;;;;;1.60;1.50;;;24.30;47.40;;;;;;5012426;28;20208;-55
2022/04/18 12:35:07;;;;;;;2.38;1.23;;;25.80;47.50;;;;;;5013628;28;20255;-49
2022/04/18 12:37:33;;;;;;;1.65;1.40;;;26.00;48.90;;;;;;5013942;28;20665;-49
2022/04/18 12:40:12;;;;;;;1.40;1.30;;;25.90;46.40;;;;;;5013966;28;20638;-52
2022/04/18 12:42:38;;;;;;;2.50;2.00;;;26.30;45.90;;;;;;5013313;28;20246;-49
2022/04/18 12:45:04;;;;;;;1.20;1.10;;;26.00;47.10;;;;;;5014002;28;20204;-49
2022/04/18 12:47:32;;;;;;;1.40;1.30;;;26.60;46.30;;;;;;5013774;28;20692;-52
2022/04/18 12:50:14;;;;;;;1.27;1.17;;;27.50;43.30;;;;;;5013982;28;20279;-55
2022/04/18 12:52:51;;;;;;;3.30;1.30;;;27.80;43.00;;;;;;5013309;28;20216;-50
2022/04/18 12:55:26;;;;;;;1.58;1.20;;;28.50;43.60;;;;;;5013859;28;20176;-52
2022/04/18 12:57:51;;;;;;;1.88;1.55;;;29.00;40.80;;;;;;5013771;28;20192;-54
2022/04/18 13:00:17;;;;;;;1.88;1.40;;;28.80;38.60;;;;;;4996214;28;20279;-58
2022/04/18 13:03:18;;;;;;;1.27;1.20;;;28.80;39.00;;;;;;5013206;28;20196;-53
2022/04/18 13:05:49;;;;;;;2.10;1.25;;;28.00;37.70;;;;;;4933718;29;20718;-56
2022/04/18 13:08:17;;;;;;;1.83;1.52;;;27.40;38.00;;;;;;4933792;29;20215;-53
2022/04/18 13:10:43;;;;;;;2.58;1.60;;;27.00;39.50;;;;;;4933874;29;20225;-55
2022/04/18 13:13:17;;;;;;;2.08;1.45;;;26.80;39.30;;;;;;4933172;29;20283;-52
2022/04/18 13:15:46;;;;;;;1.50;1.40;;;26.50;39.20;;;;;;4933638;29;20195;-54
2022/04/18 13:18:18;;;;;;;1.25;1.20;;;26.20;39.80;;;;;;4933578;29;20207;-55
2022/04/18 13:20:45;;;;;;;1.50;1.40;;;26.00;41.90;;;;;;4933590;29;20179;-51
2022/04/18 13:23:11;;;;;;;1.50;1.40;;;26.20;39.30;;;;;;4933113;29;20199;-51
2022/04/18 13:25:38;;;;;;;1.70;1.60;;;26.50;40.10;;;;;;4933455;29;20617;-52